Time;durP1;ratioP1;P1;durP2;ratioP2;P2;SDS_P1;SDS_P2;PMS_P1;PMS_P2;Temp;Humidity;BMP_temperature;BMP_pressure;BME280_temperature;BME280_humidity;BME280_pressure;Samples;Min_cycle;Max_cycle;Signal;HPM_P1;HPM_P2
2022/03/17 00:00:57;;;;;;;;;;;;;;;-145.06;0.00;60892.56;4675429;29;19916;-91
2022/03/17 00:03:36;;;;;;;;;;;;;;;-145.06;0.00;60892.56;4675660;29;19916;-91
2022/03/17 00:06:15;;;;;;;;;;;;;;;-145.06;0.00;60892.56;4675339;29;20414;-91
2022/03/17 00:08:54;;;;;;;;;;;;;;;-145.06;0.00;60892.56;4675370;29;20358;-91
2022/03/17 00:11:34;;;;;;;;;;;;;;;-145.06;0.00;60892.56;4675524;29;19920;-91
2022/03/17 00:14:13;;;;;;;;;;;;;;;-145.06;0.00;60892.56;4674935;29;19916;-91
2022/03/17 00:16:52;;;;;;;;;;;;;;;-145.06;0.00;60892.56;4675062;29;20260;-91
2022/03/17 00:19:31;;;;;;;;;;;;;;;-145.06;0.00;60892.56;4677667;29;19921;-91
2022/03/17 00:22:15;;;;;;;;;;;;;;;-145.06;0.00;60892.56;4673174;29;19964;-92
2022/03/17 00:24:57;;;;;;;;;;;;;;;-145.06;0.00;60892.56;4677396;29;19928;-92
2022/03/17 00:27:36;;;;;;;;;;;;;;;-145.06;0.00;60892.56;4674362;29;20264;-91
2022/03/17 00:30:15;;;;;;;;;;;;;;;-145.06;0.00;60892.56;4684078;29;19920;-90
2022/03/17 00:32:54;;;;;;;;;;;;;;;-145.06;0.00;60892.56;4674777;29;19916;-92
2022/03/17 00:35:36;;;;;;;;;;;;;;;-145.06;0.00;60892.56;4678133;29;20007;-91
2022/03/17 00:38:16;;;;;;;;;;;;;;;13.28;0.00;60892.56;4673497;29;19912;-92
2022/03/17 00:40:54;;;;;;;;;;;;;;;-145.06;0.00;60892.56;4680277;29;20328;-91
2022/03/17 00:43:34;;;;;;;;;;;;;;;-145.06;0.00;60892.56;4673745;29;19916;-91
2022/03/17 00:46:13;;;;;;;;;;;;;;;-145.06;0.00;60892.56;4684940;29;20252;-92
2022/03/17 00:48:52;;;;;;;;;;;;;;;-145.06;0.00;60892.56;4678067;29;19955;-91
2022/03/17 00:51:31;;;;;;;;;;;;;;;-145.06;0.00;60892.56;4674095;29;19920;-91
2022/03/17 00:54:10;;;;;;;;;;;;;;;-145.06;0.00;60892.56;4675667;29;20010;-92
2022/03/17 00:56:49;;;;;;;;;;;;;;;187.52;0.00;60892.56;4678239;29;19916;-91
2022/03/17 00:59:28;;;;;;;;;;;;;;;-145.06;0.00;60892.56;4672283;29;20347;-92
2022/03/17 01:02:08;;;;;;;;;;;;;;;-145.06;0.00;60892.56;4675014;29;19917;-92
2022/03/17 01:04:47;;;;;;;;;;;;;;;-145.06;0.00;60892.56;4673609;29;19912;-90
2022/03/17 01:07:26;;;;;;;;;;;;;;;-145.06;0.00;60892.56;4677343;29;19995;-89
2022/03/17 01:10:05;;;;;;;;;;;;;;;-145.06;0.00;60892.56;4664380;29;20015;-90
2022/03/17 01:12:46;;;;;;;;;;;;;;;-145.06;0.00;60892.56;4674001;29;19921;-90
2022/03/17 01:15:24;;;;;;;;;;;;;;;-145.06;0.00;60892.56;4673583;29;20359;-89
2022/03/17 01:18:03;;;;;;;;;;;;;;;-145.06;0.00;60892.56;4674652;29;19924;-90
2022/03/17 01:20:42;;;;;;;;;;;;;;;-145.06;0.00;60892.56;4672612;29;19916;-90
2022/03/17 01:23:21;;;;;;;;;;;;;;;-145.06;0.00;60892.56;4673838;29;20252;-90
2022/03/17 01:26:00;;;;;;;;;;;;;;;-145.06;0.00;60892.56;4672756;29;19959;-90
2022/03/17 01:28:41;;;;;;;;;;;;;;;-145.06;0.00;60892.56;4670727;29;19917;-91
2022/03/17 01:31:23;;;;;;;;;;;;;;;-145.06;0.00;60892.56;4667037;29;19916;-90
2022/03/17 01:34:03;;;;;;;;;;;;;;;-145.06;0.00;60892.56;4666322;29;19916;-91
2022/03/17 01:36:42;;;;;;;;;;;;;;;-145.06;0.00;60892.56;4673695;29;20488;-91
2022/03/17 01:39:22;;;;;;;;;;;;;;;-145.06;0.00;60892.56;4673192;29;19920;-90
2022/03/17 01:42:05;;;;;;;;;;;;;;;-145.06;0.00;60892.56;4673533;29;19920;-90
2022/03/17 01:44:44;;;;;;;;;;;;;;;-145.06;0.00;60892.56;4674015;29;19959;-90
2022/03/17 01:47:29;;;;;;;;;;;;;;;-145.06;0.00;60892.56;4679201;29;19964;-89
2022/03/17 01:50:10;;;;;;;;;;;;;;;-145.06;0.00;60892.56;4673156;29;19916;-89
2022/03/17 01:52:49;;;;;;;;;;;;;;;-145.06;0.00;60892.56;4678948;29;19921;-90
2022/03/17 01:55:28;;;;;;;;;;;;;;;-145.06;0.00;60892.56;4665797;29;20354;-90
2022/03/17 01:58:08;;;;;;;;;;;;;;;-145.06;0.00;60892.56;4683094;29;20383;-90
2022/03/17 02:00:47;;;;;;;;;;;;;;;-145.06;0.00;60892.56;4667764;29;19921;-91
2022/03/17 02:03:27;;;;;;;;;;;;;;;-145.06;0.00;60892.56;4661072;29;19920;-90
2022/03/17 02:06:06;;;;;;;;;;;;;;;-145.06;0.00;60892.56;4668269;29;19913;-90
2022/03/17 02:08:45;;;;;;;;;;;;;;;-145.06;0.00;60892.56;4671991;29;20255;-90
2022/03/17 02:14:26;;;;;;;;;;;;;;;-145.06;0.00;60892.56;4677341;29;20003;-90
2022/03/17 02:17:06;;;;;;;;;;;;;;;-145.06;0.00;60892.56;4672621;29;19916;-90
2022/03/17 02:19:45;;;;;;;;;;;;;;;-145.06;0.00;60892.56;4671136;29;19917;-91
2022/03/17 02:22:23;;;;;;;;;;;;;;;-145.06;0.00;60892.56;4673364;29;19917;-90
2022/03/17 02:28:02;;;;;;;;;;;;;;;-145.06;0.00;60892.56;4683753;29;20255;-91
2022/03/17 02:30:41;;;;;;;;;;;;;;;-145.06;0.00;60892.56;4672366;29;19920;-90
2022/03/17 02:33:20;;;;;;;;;;;;;;;-145.06;0.00;60892.56;4659611;29;20375;-91
2022/03/17 02:36:00;;;;;;;;;;;;;;;-145.06;0.00;60892.56;4671263;29;19924;-91
2022/03/17 02:38:38;;;;;;;;;;;;;;;-145.06;0.00;60892.56;4675735;29;19916;-90
2022/03/17 02:41:23;;;;;;;;;;;;;;;-145.06;0.00;60892.56;4672423;29;19920;-91
2022/03/17 02:44:04;;;;;;;;;;;;;;;-145.06;0.00;60892.56;4667375;29;19999;-90
2022/03/17 02:46:43;;;;;;;;;;;;;;;-145.06;0.00;60892.56;4680294;29;19920;-91
2022/03/17 02:49:22;;;;;;;;;;;;;;;-145.06;0.00;60892.56;4666987;29;19955;-90
2022/03/17 02:52:01;;;;;;;;;;;;;;;-145.06;0.00;60892.56;4673767;29;20275;-89
2022/03/17 02:54:40;;;;;;;;;;;;;;;-145.06;0.00;60892.56;4668282;29;19967;-89
2022/03/17 02:57:19;;;;;;;;;;;;;;;-145.06;0.00;60892.56;4672871;29;19913;-90
2022/03/17 02:59:58;;;;;;;;;;;;;;;-145.06;0.00;60892.56;4672392;29;19916;-91
2022/03/17 03:02:37;;;;;;;;;;;;;;;-145.06;0.00;60892.56;4672785;29;19920;-90
2022/03/17 03:05:16;;;;;;;;;;;;;;;-145.06;0.00;60892.56;4684027;29;19916;-88
2022/03/17 03:07:55;;;;;;;;;;;;;;;-145.06;0.00;60892.56;4682072;29;19912;-90
2022/03/17 03:10:34;;;;;;;;;;;;;;;-145.06;0.00;60892.56;4673620;29;19920;-91
2022/03/17 03:13:13;;;;;;;;;;;;;;;-145.06;0.00;60892.56;4670217;29;19956;-91
2022/03/17 03:15:52;;;;;;;;;;;;;;;-145.06;0.00;60892.56;4668550;29;19964;-91
2022/03/17 03:18:31;;;;;;;;;;;;;;;-145.06;0.00;60892.56;4676227;29;19924;-90
2022/03/17 03:21:10;;;;;;;;;;;;;;;-145.06;0.00;60892.56;4676337;29;19917;-91
2022/03/17 03:23:49;;;;;;;;;;;;;;;-145.06;0.00;60892.56;4676538;29;19912;-92
2022/03/17 03:26:28;;;;;;;;;;;;;;;-145.06;0.00;60892.56;4658685;29;19916;-90
2022/03/17 03:29:17;;;;;;;;;;;;;;;-145.06;0.00;60892.56;4675923;29;19952;-90
2022/03/17 03:31:57;;;;;;;;;;;;;;;-145.06;0.00;60892.56;4676163;29;19921;-91
2022/03/17 03:34:36;;;;;;;;;;;;;;;-145.06;0.00;60892.56;4673086;29;19917;-90
2022/03/17 03:37:24;;;;;;;;;;;;;;;-145.06;0.00;60892.56;4675571;29;20355;-90
2022/03/17 03:40:04;;;;;;;;;;;;;;;-145.06;0.00;60892.56;4673299;29;19917;-90
2022/03/17 03:42:43;;;;;;;;;;;;;;;-145.06;0.00;60892.56;4664787;29;19920;-89
2022/03/17 03:45:22;;;;;;;;;;;;;;;-145.06;0.00;60892.56;4665713;29;19920;-90
2022/03/17 03:48:01;;;;;;;;;;;;;;;-145.06;0.00;60892.56;4673428;29;19924;-90
2022/03/17 03:50:40;;;;;;;;;;;;;;;-145.06;0.00;60892.56;4682141;29;19912;-91
2022/03/17 03:53:19;;;;;;;;;;;;;;;-145.06;0.00;60892.56;4674639;29;19924;-90
2022/03/17 03:55:58;;;;;;;;;;;;;;;-145.06;0.00;60892.56;4672968;29;19916;-90
2022/03/17 03:58:37;;;;;;;;;;;;;;;-145.06;0.00;60892.56;4675258;29;19916;-90
2022/03/17 04:01:17;;;;;;;;;;;;;;;-145.06;0.00;60892.56;4663891;29;20240;-91
2022/03/17 04:03:55;;;;;;;;;;;;;;;-145.06;0.00;60892.56;4664593;29;19947;-90
2022/03/17 04:06:47;;;;;;;;;;;;;;;-145.06;0.00;60892.56;4664496;29;20460;-90
2022/03/17 04:09:28;;;;;;;;;;;;;;;-145.06;0.00;60892.56;4673822;29;19924;-90
2022/03/17 04:12:08;;;;;;;;;;;;;;;-145.06;0.00;60892.56;4683157;29;20542;-90
2022/03/17 04:14:47;;;;;;;;;;;;;;;-145.06;0.00;60892.56;4668240;29;19938;-89
2022/03/17 04:17:26;;;;;;;;;;;;;;;-145.06;0.00;60892.56;4668148;29;19917;-88
2022/03/17 04:20:06;;;;;;;;;;;;;;;-145.06;0.00;60892.56;4670225;29;20366;-89
2022/03/17 04:22:44;;;;;;;;;;;;;;;-145.06;0.00;60892.56;4674173;29;19920;-89
2022/03/17 04:25:24;;;;;;;;;;;;;;;-145.06;0.00;60892.56;4673339;29;20354;-88
2022/03/17 04:28:05;;;;;;;;;;;;;;;-145.06;0.00;60892.56;4679076;29;20003;-89
2022/03/17 04:30:43;;;;;;;;;;;;;;;-145.06;0.00;60892.56;4671776;29;19916;-88
2022/03/17 04:33:22;;;;;;;;;;;;;;;-145.06;0.00;60892.56;4677176;29;19919;-88
2022/03/17 04:36:02;;;;;;;;;;;;;;;-145.06;0.00;60892.56;4680161;29;20366;-89
2022/03/17 04:38:41;;;;;;;;;;;;;;;-145.06;0.00;60892.56;4671055;29;19976;-88
2022/03/17 04:41:21;;;;;;;;;;;;;;;-145.06;0.00;60892.56;4679407;29;19920;-87
2022/03/17 04:44:00;;;;;;;;;;;;;;;-145.06;0.00;60892.56;4676831;29;19920;-87
2022/03/17 04:46:38;;;;;;;;;;;;;;;-145.06;0.00;60892.56;4680030;29;19916;-87
2022/03/17 04:49:17;;;;;;;;;;;;;;;-145.06;0.00;60892.56;4670502;29;19920;-87
2022/03/17 04:51:57;;;;;;;;;;;;;;;-145.06;0.00;60892.56;4672188;29;19921;-88
2022/03/17 04:54:35;;;;;;;;;;;;;;;-145.06;0.00;60892.56;4667629;29;20259;-88
2022/03/17 04:57:14;;;;;;;;;;;;;;;-145.06;0.00;60892.56;4675067;29;19963;-87
2022/03/17 04:59:54;;;;;;;;;;;;;;;-145.06;0.00;60892.56;4671129;29;19920;-87
2022/03/17 05:02:33;;;;;;;;;;;;;;;-145.06;0.00;60892.56;4672189;29;20011;-86
2022/03/17 05:05:12;;;;;;;;;;;;;;;-145.06;0.00;60892.56;4671930;29;19917;-87
2022/03/17 05:07:56;;;;;;;;;;;;;;;-145.06;0.00;60892.56;4664347;29;19920;-86
2022/03/17 05:10:38;;;;;;;;;;;;;;;-145.06;0.00;60892.56;4671796;29;20307;-87
2022/03/17 05:13:18;;;;;;;;;;;;;;;-145.06;0.00;60892.56;4671908;29;19920;-86
2022/03/17 05:15:56;;;;;;;;;;;;;;;-145.06;0.00;60892.56;4673680;29;19924;-86
2022/03/17 05:18:36;;;;;;;;;;;;;;;-145.06;0.00;60892.56;4667618;29;20366;-86
2022/03/17 05:21:14;;;;;;;;;;;;;;;11.96;0.00;60892.56;4666280;29;19920;-87
2022/03/17 05:23:53;;;;;;;;;;;;;;;11.87;0.00;60892.56;4665215;29;20416;-87
2022/03/17 05:26:33;;;;;;;;;;;;;;;11.81;0.00;60892.56;4680013;29;19916;-87
2022/03/17 05:29:12;;;;;;;;;;;;;;;11.72;0.00;60892.56;4685552;29;19924;-87
2022/03/17 05:31:51;;;;;;;;;;;;;;;-145.06;0.00;60892.56;4672518;29;20379;-86
2022/03/17 05:34:32;;;;;;;;;;;;;;;-145.06;0.00;60892.56;4676863;29;19916;-85
2022/03/17 05:37:10;;;;;;;;;;;;;;;-145.06;0.00;60892.56;4685775;29;20003;-86
2022/03/17 05:39:50;;;;;;;;;;;;;;;-145.06;0.00;60892.56;4670532;29;19913;-86
2022/03/17 05:42:29;;;;;;;;;;;;;;;-145.06;0.00;60892.56;4673878;29;19920;-86
2022/03/17 05:45:08;;;;;;;;;;;;;;;-145.06;0.00;60892.56;4673205;29;21511;-87
2022/03/17 05:47:52;;;;;;;;;;;;;;;-145.06;0.00;60892.56;4668576;29;19924;-87
2022/03/17 05:50:32;;;;;;;;;;;;;;;-145.06;0.00;60892.56;4680981;29;19916;-87
2022/03/17 05:53:11;;;;;;;;;;;;;;;-145.06;0.00;60892.56;4670318;29;19924;-85
2022/03/17 05:55:50;;;;;;;;;;;;;;;-145.06;0.00;60892.56;4663986;29;19920;-86
2022/03/17 05:58:30;;;;;;;;;;;;;;;-145.06;0.00;60892.56;4668172;29;20031;-86
2022/03/17 06:01:09;;;;;;;;;;;;;;;-145.06;0.00;60892.56;4672074;29;19920;-85
2022/03/17 06:03:48;;;;;;;;;;;;;;;-145.06;0.00;60892.56;4670075;29;19916;-85
2022/03/17 06:06:27;;;;;;;;;;;;;;;-145.06;0.00;60892.56;4681392;29;19912;-86
2022/03/17 06:09:06;;;;;;;;;;;;;;;-145.06;0.00;60892.56;4668344;29;20367;-86
2022/03/17 06:11:45;;;;;;;;;;;;;;;-145.06;0.00;60892.56;4676568;29;19916;-86
2022/03/17 06:14:26;;;;;;;;;;;;;;;-145.06;0.00;60892.56;4675293;29;20410;-87
2022/03/17 06:17:05;;;;;;;;;;;;;;;-145.06;0.00;60892.56;4672353;29;20357;-86
2022/03/17 06:19:44;;;;;;;;;;;;;;;10.66;0.00;60892.56;4667764;29;19920;-86
2022/03/17 06:22:23;;;;;;;;;;;;;;;10.62;0.00;60892.56;4679807;29;19912;-86
2022/03/17 06:25:02;;;;;;;;;;;;;;;10.61;0.00;60892.56;4674442;29;19920;-85
2022/03/17 06:27:43;;;;;;;;;;;;;;;10.58;0.00;60892.56;4678408;29;19916;-85
2022/03/17 06:30:24;;;;;;;;;;;;;;;10.53;0.00;60892.56;4670375;29;19920;-86
2022/03/17 06:33:04;;;;;;;;;;;;;;;10.47;0.00;60892.56;4681110;29;20268;-86
2022/03/17 06:35:43;;;;;;;;;;;;;;;10.42;0.00;60892.56;4674753;29;19920;-86
2022/03/17 06:38:22;;;;;;;;;;;;;;;-145.06;0.00;60892.56;4671236;29;19916;-86
2022/03/17 06:41:01;;;;;;;;;;;;;;;-145.06;0.00;60892.56;4678029;29;19924;-86
2022/03/17 06:43:40;;;;;;;;;;;;;;;-145.06;0.00;60892.56;4665604;29;19917;-85
2022/03/17 06:46:19;;;;;;;;;;;;;;;-145.06;0.00;60892.56;4668478;29;19951;-87
2022/03/17 06:48:58;;;;;;;;;;;;;;;-145.06;0.00;60892.56;4661359;29;19920;-86
2022/03/17 06:51:37;;;;;;;;;;;;;;;-145.06;0.00;60892.56;4667557;29;20019;-87
2022/03/17 06:54:16;;;;;;;;;;;;;;;-145.06;0.00;60892.56;4663514;29;19924;-86
2022/03/17 06:56:55;;;;;;;;;;;;;;;-145.06;0.00;60892.56;4668280;29;19920;-86
2022/03/17 06:59:34;;;;;;;;;;;;;;;-145.06;0.00;60892.56;4663546;29;21556;-87
2022/03/17 07:02:13;;;;;;;;;;;;;;;-145.06;0.00;60892.56;4664068;29;20560;-86
2022/03/17 07:04:52;;;;;;;;;;;;;;;-145.06;0.00;60892.56;4663175;29;19920;-86
2022/03/17 07:07:32;;;;;;;;;;;;;;;-145.06;0.00;60892.56;4663861;29;19921;-86
2022/03/17 07:10:11;;;;;;;;;;;;;;;-145.06;0.00;60892.56;4663611;29;19920;-88
2022/03/17 07:12:50;;;;;;;;;;;;;;;-145.06;0.00;60892.56;4681992;29;19924;-86
2022/03/17 07:15:29;;;;;;;;;;;;;;;-145.06;0.00;60892.56;4674493;29;19999;-87
2022/03/17 07:18:08;;;;;;;;;;;;;;;-145.06;0.00;60892.56;4681025;29;19935;-86
2022/03/17 07:20:47;;;;;;;;;;;;;;;-145.06;0.00;60892.56;4673275;29;19920;-87
2022/03/17 07:23:26;;;;;;;;;;;;;;;-145.06;0.00;60892.56;4681124;29;20414;-87
2022/03/17 07:26:05;;;;;;;;;;;;;;;-145.06;0.00;60892.56;4677785;29;19915;-87
2022/03/17 07:28:44;;;;;;;;;;;;;;;-145.06;0.00;60892.56;4679368;29;19920;-88
2022/03/17 07:31:24;;;;;;;;;;;;;;;-145.06;0.00;60892.56;4669519;29;19921;-86
2022/03/17 07:34:03;;;;;;;;;;;;;;;-145.06;0.00;60892.56;4673927;29;19920;-86
2022/03/17 07:36:44;;;;;;;;;;;;;;;-145.06;0.00;60892.56;4672900;29;20275;-87
2022/03/17 07:39:23;;;;;;;;;;;;;;;-145.06;0.00;60892.56;4683515;29;20271;-87
2022/03/17 07:42:04;;;;;;;;;;;;;;;-145.06;0.00;60892.56;4675931;29;19920;-87
2022/03/17 07:44:43;;;;;;;;;;;;;;;-145.06;0.00;60892.56;4672677;29;19963;-87
2022/03/17 07:47:22;;;;;;;;;;;;;;;-145.06;0.00;60892.56;4669054;29;20283;-85
2022/03/17 07:50:03;;;;;;;;;;;;;;;-145.06;0.00;60892.56;4679417;29;20284;-86
2022/03/17 07:52:42;;;;;;;;;;;;;;;-145.06;0.00;60892.56;4673527;29;19920;-87
2022/03/17 07:55:21;;;;;;;;;;;;;;;-145.06;0.00;60892.56;4673986;29;19925;-86
2022/03/17 07:58:00;;;;;;;;;;;;;;;-145.06;0.00;60892.56;4679094;29;19916;-87
2022/03/17 08:00:42;;;;;;;;;;;;;;;-145.06;0.00;60892.56;4671344;29;19956;-87
2022/03/17 08:03:21;;;;;;;;;;;;;;;-145.06;0.00;60892.56;4670445;29;19925;-86
2022/03/17 08:06:00;;;;;;;;;;;;;;;-145.06;0.00;60892.56;4679601;29;19913;-86
2022/03/17 08:08:41;;;;;;;;;;;;;;;-145.06;0.00;60892.56;4672675;29;19913;-87
2022/03/17 08:11:23;;;;;;;;;;;;;;;-145.06;0.00;60892.56;4680552;29;19913;-86
2022/03/17 08:14:02;;;;;;;;;;;;;;;-145.06;0.00;60892.56;4666404;29;20525;-87
2022/03/17 08:16:41;;;;;;;;;;;;;;;-145.06;0.00;60892.56;4675103;29;20350;-87
2022/03/17 08:19:20;;;;;;;;;;;;;;;-145.06;0.00;60892.56;4672777;29;19913;-86
2022/03/17 08:21:59;;;;;;;;;;;;;;;-145.06;0.00;60892.56;4665846;29;19916;-86
2022/03/17 08:24:37;;;;;;;;;;;;;;;-145.06;0.00;60892.56;4673630;29;19947;-87
2022/03/17 08:27:17;;;;;;;;;;;;;;;-145.06;0.00;60892.56;4677929;29;20369;-87
2022/03/17 08:29:56;;;;;;;;;;;;;;;-145.06;0.00;60892.56;4681484;29;19913;-88
2022/03/17 08:32:35;;;;;;;;;;;;;;;-145.06;0.00;60892.56;4680399;29;19924;-87
2022/03/17 08:35:14;;;;;;;;;;;;;;;-145.06;0.00;60892.56;4684622;29;19998;-87
2022/03/17 08:37:53;;;;;;;;;;;;;;;-145.06;0.00;60892.56;4686842;29;19913;-86
2022/03/17 08:40:32;;;;;;;;;;;;;;;-145.06;0.00;60892.56;4672355;29;20003;-87
2022/03/17 08:43:12;;;;;;;;;;;;;;;-145.06;0.00;60892.56;4674526;29;19920;-87
2022/03/17 08:51:47;;;;;;;;;;;;;;;-145.06;0.00;60892.56;4673251;29;19912;-87
2022/03/17 08:54:28;;;;;;;;;;;;;;;-145.06;0.00;60892.56;4680364;29;19916;-86
2022/03/17 08:57:07;;;;;;;;;;;;;;;-145.06;0.00;60892.56;4685235;29;20412;-86
2022/03/17 08:59:46;;;;;;;;;;;;;;;-145.06;0.00;60892.56;4661815;29;20471;-87
2022/03/17 09:02:25;;;;;;;;;;;;;;;-145.06;0.00;60892.56;4673261;29;19917;-87
2022/03/17 09:05:04;;;;;;;;;;;;;;;-145.06;0.00;60892.56;4673033;29;20794;-86
2022/03/17 09:07:43;;;;;;;;;;;;;;;-145.06;0.00;60892.56;4679585;29;20003;-87
2022/03/17 09:10:23;;;;;;;;;;;;;;;-145.06;0.00;60892.56;4654433;29;19917;-87
2022/03/17 09:13:08;;;;;;;;;;;;;;;-145.06;0.00;60892.56;4673230;29;19923;-86
2022/03/17 09:15:47;;;;;;;;;;;;;;;9.28;0.00;60892.56;4673221;29;19916;-87
2022/03/17 09:18:27;;;;;;;;;;;;;;;9.24;0.00;60892.56;4681336;29;19920;-87
2022/03/17 09:21:06;;;;;;;;;;;;;;;9.18;0.00;60892.56;4677409;29;20011;-86
2022/03/17 09:23:45;;;;;;;;;;;;;;;9.13;0.00;60892.56;4662013;29;20601;-87
2022/03/17 09:26:24;;;;;;;;;;;;;;;9.09;0.00;60892.56;4676551;29;19916;-86
2022/03/17 09:29:03;;;;;;;;;;;;;;;-145.06;0.00;60892.56;4674910;29;19913;-87
2022/03/17 09:31:42;;;;;;;;;;;;;;;9.07;0.00;60892.56;4682498;29;19943;-87
2022/03/17 09:34:21;;;;;;;;;;;;;;;9.09;0.00;60892.56;4680176;29;19912;-86
2022/03/17 09:37:00;;;;;;;;;;;;;;;9.13;0.00;60892.56;4689593;29;19912;-87
2022/03/17 09:39:45;;;;;;;;;;;;;;;9.21;0.00;60892.56;4676684;29;19916;-87
2022/03/17 09:42:24;;;;;;;;;;;;;;;9.29;0.00;60892.56;4662174;29;19916;-86
2022/03/17 09:45:03;;;;;;;;;;;;;;;-145.06;0.00;60892.56;4662645;29;19995;-87
2022/03/17 09:47:44;;;;;;;;;;;;;;;-145.06;0.00;60892.56;4664048;29;20272;-87
2022/03/17 09:50:22;;;;;;;;;;;;;;;-145.06;0.00;60892.56;4689021;29;19916;-87
2022/03/17 09:53:01;;;;;;;;;;;;;;;-145.06;0.00;60892.56;4682407;29;19920;-87
2022/03/17 09:55:43;;;;;;;;;;;;;;;-145.06;0.00;60892.56;4675936;29;20003;-86
2022/03/17 09:58:22;;;;;;;;;;;;;;;-145.06;0.00;60892.56;4671886;29;19913;-87
2022/03/17 10:01:02;;;;;;;;;;;;;;;-145.06;0.00;60892.56;4671507;29;19916;-88
2022/03/17 10:03:41;;;;;;;;;;;;;;;-145.06;0.00;60892.56;4671419;29;19912;-87
2022/03/17 10:06:19;;;;;;;;;;;;;;;-145.06;0.00;60892.56;4666205;29;19916;-87
2022/03/17 10:08:59;;;;;;;;;;;;;;;-145.06;0.00;60892.56;4671580;29;19912;-87
2022/03/17 10:11:37;;;;;;;;;;;;;;;-145.06;0.00;60892.56;4682741;29;19912;-87
2022/03/17 10:14:34;;;;;;;;;;;;;;;-145.06;0.00;60892.56;4661984;29;19917;-87
2022/03/17 10:17:32;;;;;;;;;;;;;;;-145.06;0.00;60892.56;4668531;29;19912;-87
2022/03/17 10:20:11;;;;;;;;;;;;;;;-145.06;0.00;60892.56;4684144;29;19912;-87
2022/03/17 10:22:51;;;;;;;;;;;;;;;-145.06;0.00;60892.56;4670732;29;20366;-87
2022/03/17 10:25:37;;;;;;;;;;;;;;;-145.06;0.00;60892.56;4663852;29;19956;-87
2022/03/17 10:28:16;;;;;;;;;;;;;;;-145.06;0.00;60892.56;4668174;29;19912;-89
2022/03/17 10:31:01;;;;;;;;;;;;;;;-145.06;0.00;60892.56;4669411;29;19916;-88
2022/03/17 10:33:42;;;;;;;;;;;;;;;-145.06;0.00;60892.56;4691480;29;20275;-88
2022/03/17 10:36:21;;;;;;;;;;;;;;;-145.06;0.00;60892.56;4683716;29;19912;-87
2022/03/17 10:38:59;;;;;;;;;;;;;;;-145.06;0.00;60892.56;4678152;29;19917;-87
2022/03/17 10:41:40;;;;;;;;;;;;;;;-145.06;0.00;60892.56;4660828;29;19917;-88
2022/03/17 10:44:19;;;;;;;;;;;;;;;-145.06;0.00;60892.56;4664610;29;19916;-89
2022/03/17 10:47:01;;;;;;;;;;;;;;;-145.06;0.00;60892.56;4664716;29;19912;-88
2022/03/17 10:49:58;;;;;;;;;;;;;;;-145.06;0.00;60892.56;4681090;29;19912;-87
2022/03/17 10:52:51;;;;;;;;;;;;;;;-145.06;0.00;60892.56;4661621;29;19917;-88
2022/03/17 10:55:31;;;;;;;;;;;;;;;-145.06;0.00;60892.56;4674270;29;20351;-88
2022/03/17 10:58:17;;;;;;;;;;;;;;;-145.06;0.00;60892.56;4658334;29;20372;-89
2022/03/17 11:00:56;;;;;;;;;;;;;;;-145.06;0.00;60892.56;4660015;29;20256;-89
2022/03/17 11:03:35;;;;;;;;;;;;;;;-145.06;0.00;60892.56;4675716;29;20424;-89
2022/03/17 11:06:15;;;;;;;;;;;;;;;-145.06;0.00;60892.56;4664943;29;20354;-88
2022/03/17 11:08:55;;;;;;;;;;;;;;;-145.06;0.00;60892.56;4688190;29;19916;-89
2022/03/17 11:11:37;;;;;;;;;;;;;;;-145.06;0.00;60892.56;4686786;29;19912;-88
2022/03/17 11:14:17;;;;;;;;;;;;;;;-145.06;0.00;60892.56;4674668;29;20011;-89
2022/03/17 11:16:58;;;;;;;;;;;;;;;-145.06;0.00;60892.56;4670213;29;19916;-88
2022/03/17 11:19:37;;;;;;;;;;;;;;;-145.06;0.00;60892.56;4663482;29;19912;-90
2022/03/17 11:22:20;;;;;;;;;;;;;;;-145.06;0.00;60892.56;4672190;29;19912;-89
2022/03/17 11:25:19;;;;;;;;;;;;;;;-145.06;0.00;60892.56;4676407;29;20380;-88
2022/03/17 11:28:00;;;;;;;;;;;;;;;-145.06;0.00;60892.56;4654804;29;19913;-89
2022/03/17 11:30:43;;;;;;;;;;;;;;;-145.06;0.00;60892.56;4670761;29;19917;-88
2022/03/17 11:33:31;;;;;;;;;;;;;;;-145.06;0.00;60892.56;4673332;29;19916;-87
2022/03/17 11:36:10;;;;;;;;;;;;;;;-145.06;0.00;60892.56;4681671;29;19959;-88
2022/03/17 11:39:09;;;;;;;;;;;;;;;-145.06;0.00;60892.56;4692367;29;19943;-87
2022/03/17 11:41:52;;;;;;;;;;;;;;;-145.06;0.00;60892.56;4699933;29;19916;-89
2022/03/17 11:44:33;;;;;;;;;;;;;;;-145.06;0.00;60892.56;4675190;29;19921;-88
2022/03/17 11:47:12;;;;;;;;;;;;;;;-145.06;0.00;60892.56;4660222;29;19959;-88
2022/03/17 11:49:51;;;;;;;;;;;;;;;10.38;0.00;60892.56;4656675;29;19956;-88
2022/03/17 11:52:30;;;;;;;;;;;;;;;10.40;0.00;60892.56;4657007;29;19917;-90
2022/03/17 11:55:29;;;;;;;;;;;;;;;10.42;0.00;60892.56;4658155;29;19921;-88
2022/03/17 11:58:25;;;;;;;;;;;;;;;-145.06;0.00;60892.56;4657258;29;19916;-87
2022/03/17 12:01:13;;;;;;;;;;;;;;;10.49;0.00;60892.56;4656590;29;19913;-88
2022/03/17 12:03:56;;;;;;;;;;;;;;;-145.06;0.00;60892.56;4656763;29;19912;-89
2022/03/17 12:06:39;;;;;;;;;;;;;;;-145.06;0.00;60892.56;4674956;29;20382;-88
2022/03/17 12:09:28;;;;;;;;;;;;;;;10.51;0.00;60892.56;4667641;29;20003;-88
2022/03/17 12:12:18;;;;;;;;;;;;;;;10.52;0.00;60892.56;4672080;29;19924;-88
2022/03/17 12:15:00;;;;;;;;;;;;;;;10.54;0.00;60892.56;4672771;29;19912;-88
2022/03/17 12:17:38;;;;;;;;;;;;;;;10.55;0.00;60892.56;4674724;29;19912;-88
2022/03/17 12:20:22;;;;;;;;;;;;;;;-145.06;0.00;60892.56;4673797;29;20392;-89
2022/03/17 12:23:01;;;;;;;;;;;;;;;-145.06;0.00;60892.56;4680995;29;19916;-87
2022/03/17 12:26:00;;;;;;;;;;;;;;;-145.06;0.00;60892.56;4675342;29;19916;-89
2022/03/17 12:28:44;;;;;;;;;;;;;;;-145.06;0.00;60892.56;4674063;29;20359;-88
2022/03/17 12:31:22;;;;;;;;;;;;;;;-145.06;0.00;60892.56;4673639;29;19912;-88
2022/03/17 12:34:03;;;;;;;;;;;;;;;-145.06;0.00;60892.56;4670341;29;20019;-87
2022/03/17 12:36:42;;;;;;;;;;;;;;;-145.06;0.00;60892.56;4681585;29;19917;-88
2022/03/17 12:39:28;;;;;;;;;;;;;;;-145.06;0.00;60892.56;4673232;29;19912;-88
2022/03/17 12:42:12;;;;;;;;;;;;;;;-145.06;0.00;60892.56;4674132;29;19917;-89
2022/03/17 12:44:53;;;;;;;;;;;;;;;-145.06;0.00;60892.56;4661801;29;20007;-88
2022/03/17 12:47:33;;;;;;;;;;;;;;;-145.06;0.00;60892.56;4663219;29;19916;-88
2022/03/17 12:50:13;;;;;;;;;;;;;;;-145.06;0.00;60892.56;4655500;29;19917;-88
2022/03/17 12:52:52;;;;;;;;;;;;;;;-145.06;0.00;60892.56;4656242;29;19959;-89
2022/03/17 12:55:31;;;;;;;;;;;;;;;-145.06;0.00;60892.56;4658771;29;20358;-88
2022/03/17 12:58:15;;;;;;;;;;;;;;;-145.06;0.00;60892.56;4680541;29;19912;-89
2022/03/17 13:00:54;;;;;;;;;;;;;;;-145.06;0.00;60892.56;4673196;29;19942;-88
2022/03/17 13:03:33;;;;;;;;;;;;;;;-145.06;0.00;60892.56;4673524;29;19912;-88
2022/03/17 13:09:12;;;;;;;;;;;;;;;-145.06;0.00;60892.56;4679844;29;19916;-88
2022/03/17 13:15:10;;;;;;;;;;;;;;;-145.06;0.00;60892.56;4669543;29;19960;-88
2022/03/17 13:17:59;;;;;;;;;;;;;;;-145.06;0.00;60892.56;4673104;29;19912;-88
2022/03/17 13:20:38;;;;;;;;;;;;;;;-145.06;0.00;60892.56;4673030;29;20011;-89
2022/03/17 13:23:17;;;;;;;;;;;;;;;-145.06;0.00;60892.56;4679349;29;20260;-88
2022/03/17 13:25:57;;;;;;;;;;;;;;;-145.06;0.00;60892.56;4673610;29;19913;-88
2022/03/17 13:28:36;;;;;;;;;;;;;;;-145.06;0.00;60892.56;4673304;29;19913;-89
2022/03/17 13:31:16;;;;;;;;;;;;;;;-145.06;0.00;60892.56;4679620;29;19916;-89
2022/03/17 13:33:55;;;;;;;;;;;;;;;-145.06;0.00;60892.56;4656457;29;20375;-88
2022/03/17 13:36:52;;;;;;;;;;;;;;;-145.06;0.00;60892.56;4687887;29;19912;-89
2022/03/17 13:39:32;;;;;;;;;;;;;;;-145.06;0.00;60892.56;4663488;29;19916;-88
2022/03/17 13:42:12;;;;;;;;;;;;;;;-145.06;0.00;60892.56;4673122;29;19917;-88
2022/03/17 13:44:54;;;;;;;;;;;;;;;-145.06;0.00;60892.56;4673371;29;19952;-88
2022/03/17 13:47:33;;;;;;;;;;;;;;;-145.06;0.00;60892.56;4679568;29;19956;-89
2022/03/17 13:50:23;;;;;;;;;;;;;;;-145.06;0.00;60892.56;4673354;29;19955;-89
2022/03/17 13:53:04;;;;;;;;;;;;;;;-145.06;0.00;60892.56;4672320;29;19916;-89
2022/03/17 13:55:44;;;;;;;;;;;;;;;-145.06;0.00;60892.56;4672966;29;19920;-88
2022/03/17 13:58:30;;;;;;;;;;;;;;;-145.06;0.00;60892.56;4672921;29;19913;-88
2022/03/17 14:01:09;;;;;;;;;;;;;;;-145.06;0.00;60892.56;4669651;29;20002;-89
2022/03/17 14:03:52;;;;;;;;;;;;;;;-145.06;0.00;60892.56;4675119;29;19912;-88